ADDS METAR Data INFO
IDs: Format: Raw Decoded Include TAF

Data at: 1228 UTC 22 Feb 2018

KPHD 221153Z AUTO VRB05KT 6SM -RA BR OVC045 02/01 A3048 RMK AO2 SLP329 P0006 60019 70024 T00220006 10028 20017 58004
KPHD 221053Z AUTO 35005KT 3SM RA BR OVC043 02/01 A3049 RMK AO2 SLP333 P0007 T00220006
KPHD 220953Z AUTO 36004KT 9SM -RA FEW009 OVC044 02/00 A3049 RMK AO2 SLP333 P0004 T00220000
KPHD 220935Z AUTO 03005KT 7SM -RA SCT009 OVC042 02/00 A3048 RMK AO2 P0003 T00170000
KPHD 220924Z AUTO 02005KT 8SM -RA BKN009 OVC042 02/00 A3049 RMK AO2 P0002 T00170000
KPHD 220905Z AUTO 01007KT 350V070 7SM -RA BKN010 OVC042 02/00 A3049 RMK AO2 P0001 T00170000
KPHD 220853Z AUTO 36005KT 8SM -RA SCT010 OVC042 02/00 A3049 RMK AO2 UPB0754E12RAB12 SLP332 P0002 60002 T00170000 58014
KPHD 220753Z AUTO 02007KT 350V050 10SM FEW012 OVC038 02/M01 A3051 RMK AO2 SLP338 T00221006
KPHD 220727Z AUTO 36005KT 10SM SCT012 OVC037 02/00 A3053 RMK AO2 T00220000
KPHD 220653Z AUTO 35005KT 10SM BKN012 OVC037 02/00 A3053 RMK AO2 SLP346 T00220000
KPHD 220650Z AUTO 01007KT 10SM SCT012 OVC037 02/00 A3053 RMK AO2
KPHD 220611Z AUTO 02006KT 10SM BKN010 OVC038 03/01 A3053 RMK AO2 T00280006
KPHD 220553Z AUTO 01008KT 10SM SCT010 OVC038 03/01 A3053 RMK AO2 SLP342 60003 T00280006 10050 20028 58010
KPHD 220453Z AUTO 35005KT 10SM SCT010 OVC037 03/01 A3055 RMK AO2 SLP349 T00280011 402170028
KPHD 220353Z AUTO 02004KT 10SM SCT039 OVC075 03/01 A3055 RMK AO2 UPE0255B13E16RAB0255E13 SLP349 P0001 T00280011
KPHD 220048Z AUTO 02008KT 8SM -RA SCT016 BKN030 OVC037 04/02 A3052 RMK AO2 RAB12 P0001
KPHD 212353Z AUTO 36006KT 10SM BKN016 OVC030 05/02 A3050 RMK AO2 SLP331 60001 T00500017 10111 20050 51023
KPHD 212253Z AUTO 35006KT 10SM OVC016 06/03 A3049 RMK AO2 SLP325 T00610028
KPHD 212153Z AUTO 36010KT 10SM BKN015 OVC021 07/03 A3045 RMK AO2 SLP311 T00670033
KPHD 212131Z AUTO 35007KT 10SM SCT014 OVC021 07/04 A3044 RMK AO2 T00670039
KPHD 212053Z AUTO 34008KT 320V020 10SM BKN013 OVC022 07/04 A3043 RMK AO2 SLP306 60001 T00720044 51021
KPHD 211953Z AUTO 01008KT 10SM OVC010 07/05 A3041 RMK AO2 RAB04E36 SLP300 P0000 T00720050
KPHD 211853Z AUTO 33008G16KT 10SM OVC010 09/07 A3039 RMK AO2 RAB03E26 SLP290 P0001 T00890072
KPHD 211829Z AUTO 33009G17KT 10SM OVC010 10/08 A3037 RMK AO2 RAB03E26 CIG 008V013 P0001 T01000078
KPHD 211753Z AUTO 30008KT 10SM OVC007 11/09 A3037 RMK AO2 RAB14E29 SLP282 P0000 60001 T01110094 10200 20111 53031
KPHD 211720Z AUTO 32013KT 10SM -RA BKN009 OVC017 13/11 A3034 RMK AO2 RAB14 CIG 007V011 P0000 T01280111
KPHD 211711Z AUTO 31005KT 10SM SCT009 BKN017 OVC023 14/13 A3034 RMK AO2 T01440128
KPHD 211653Z AUTO 00000KT 10SM FEW014 BKN024 OVC049 14/13 A3033 RMK AO2 RAE04B30E48 SLP268 P0001 T01440128
KPHD 211553Z AUTO 00000KT 4SM -RA BR OVC040 14/12 A3031 RMK AO2 RAB33 SLP260 P0000 T01440122
KPHD 211453Z AUTO 34006KT 10SM OVC032 14/12 A3027 RMK AO2 WSHFT 1343 RAB18E31 SLP250 P0000 60000 T01440122 53038
KPHD 211403Z AUTO 32010KT 10SM OVC035 16/12 A3024 RMK AO2 WSHFT 1343 T01610117
KPHD 211353Z AUTO 32013G23KT 10SM OVC035 16/12 A3023 RMK AO2 SLP235 T01610117
KPHD 211253Z AUTO 19009G18KT 10SM BKN041 BKN065 OVC090 20/12 A3017 RMK AO2 SLP213 T02000117
KPHD 210753Z AUTO 19007KT 10SM OVC085 21/11 A3015 RMK AO2 SLP204 T02060111
KPHD 210653Z AUTO 18008KT 10SM OVC080 21/11 A3016 RMK AO2 SLP208 T02060111
KPHD 210553Z AUTO 18010G16KT 10SM CLR 22/11 A3016 RMK AO2 SLP207 T02170111 10217 20167 58001